CSN646 SBGR-SBPV
Flight info
| Callsign | CSN646 |
|---|---|
| Flight time | 3h 7m |
| Altitude | 36000 |
| Route | GERTU UL201 PANAB DCT RODAD DCT ISUGO DCT DIKAL |
| Aircraft | B738/M-SDE2E3FGHIRWXY/LB1 |
Departure
| Time | 2026-04-21 07:43 |
|---|---|
| Airport | São Paulo/Guarulhos–Governor André Franco Montoro International Airport (SBGR) |
Arrival
| Time | 2026-04-21 10:51 |
|---|---|
| Airport | Governador Jorge Teixeira de Oliveira International Airport (SBPV) |
| Time | Latitude | Longitude | Altitude | Speed | Heading |
|---|---|---|---|---|---|
| 2026-04-21 07:34 | -23.42796 | -46.48061 | 2471 ft | 0 kts | 86° |
| 2026-04-21 07:35 | -23.42797 | -46.48080 | 2469 ft | 4 kts | 88° |
| 2026-04-21 07:35 | -23.42798 | -46.48107 | 2466 ft | 2 kts | 87° |
| 2026-04-21 07:35 | -23.42796 | -46.48128 | 2466 ft | 4 kts | 148° |
| 2026-04-21 07:36 | -23.42771 | -46.48136 | 2466 ft | 4 kts | 171° |
| 2026-04-21 07:36 | -23.42760 | -46.48138 | 2468 ft | 0 kts | 168° |
| 2026-04-21 07:38 | -23.42783 | -46.48134 | 2469 ft | 7 kts | 172° |
| 2026-04-21 07:39 | -23.42858 | -46.48128 | 2469 ft | 14 kts | 175° |
| 2026-04-21 07:39 | -23.42975 | -46.48136 | 2469 ft | 18 kts | 178° |
| 2026-04-21 07:39 | -23.43085 | -46.48130 | 2469 ft | 17 kts | 193° |
| 2026-04-21 07:39 | -23.43148 | -46.48252 | 2467 ft | 22 kts | 255° |
| 2026-04-21 07:40 | -23.43205 | -46.48378 | 2471 ft | 12 kts | 198° |
| 2026-04-21 07:40 | -23.43287 | -46.48363 | 2469 ft | 10 kts | 164° |
| 2026-04-21 07:40 | -23.43306 | -46.48357 | 2469 ft | 0 kts | 164° |
| 2026-04-21 07:41 | -23.43307 | -46.48357 | 2469 ft | 1 kts | 164° |
| 2026-04-21 07:41 | -23.43332 | -46.48349 | 2469 ft | 0 kts | 164° |
| 2026-04-21 07:41 | -23.43358 | -46.48341 | 2469 ft | 9 kts | 162° |
| 2026-04-21 07:41 | -23.43405 | -46.48263 | 2467 ft | 16 kts | 81° |
| 2026-04-21 07:42 | -23.43397 | -46.48225 | 2471 ft | 1 kts | 73° |
| 2026-04-21 07:42 | -23.43394 | -46.48217 | 2469 ft | 1 kts | 73° |
| 2026-04-21 07:42 | -23.43387 | -46.48190 | 2469 ft | 18 kts | 73° |
| 2026-04-21 07:42 | -23.43282 | -46.47799 | 2471 ft | 89 kts | 73° |
| 2026-04-21 07:43 | -23.43049 | -46.46943 | 2462 ft | 147 kts | 74° |
| 2026-04-21 07:43 | -23.42712 | -46.45671 | 2535 ft | 191 kts | 74° |
| 2026-04-21 07:43 | -23.42369 | -46.44330 | 3619 ft | 169 kts | 74° |
| 2026-04-21 07:43 | -23.42017 | -46.43127 | 4413 ft | 174 kts | 73° |
| 2026-04-21 07:44 | -23.41619 | -46.41794 | 4650 ft | 196 kts | 73° |
| 2026-04-21 07:44 | -23.41177 | -46.40314 | 4820 ft | 214 kts | 73° |
| 2026-04-21 07:44 | -23.40698 | -46.38714 | 4972 ft | 232 kts | 73° |
| 2026-04-21 07:44 | -23.40182 | -46.36989 | 5155 ft | 250 kts | 73° |
| 2026-04-21 07:45 | -23.39458 | -46.35191 | 5516 ft | 265 kts | 62° |
| 2026-04-21 07:45 | -23.38467 | -46.33476 | 6086 ft | 270 kts | 59° |
| 2026-04-21 07:45 | -23.37428 | -46.31748 | 6685 ft | 275 kts | 59° |
| 2026-04-21 07:45 | -23.36389 | -46.30018 | 7287 ft | 277 kts | 60° |
| 2026-04-21 07:46 | -23.35342 | -46.28239 | 7886 ft | 282 kts | 60° |
| 2026-04-21 07:46 | -23.34281 | -46.26424 | 8482 ft | 285 kts | 60° |
| 2026-04-21 07:46 | -23.33209 | -46.24582 | 9112 ft | 289 kts | 60° |
| 2026-04-21 07:46 | -23.32126 | -46.22718 | 9753 ft | 293 kts | 60° |
| 2026-04-21 07:47 | -23.31025 | -46.20820 | 10277 ft | 303 kts | 60° |
| 2026-04-21 07:47 | -23.29860 | -46.18809 | 10415 ft | 324 kts | 60° |
| 2026-04-21 07:47 | -23.29044 | -46.17400 | 10507 ft | 338 kts | 60° |
| 2026-04-21 07:47 | -23.27754 | -46.15177 | 10660 ft | 356 kts | 59° |
| 2026-04-21 07:48 | -23.26412 | -46.12867 | 11014 ft | 365 kts | 59° |
| 2026-04-21 07:48 | -23.25045 | -46.10515 | 11535 ft | 369 kts | 59° |
| 2026-04-21 07:48 | -23.23216 | -46.07375 | 12300 ft | 372 kts | 59° |
| 2026-04-21 07:48 | -23.22261 | -46.05774 | 12667 ft | 375 kts | 55° |
| 2026-04-21 07:49 | -23.20396 | -46.03819 | 13177 ft | 383 kts | 34° |
| 2026-04-21 07:49 | -23.17974 | -46.02598 | 13783 ft | 386 kts | 21° |
| 2026-04-21 07:49 | -23.15331 | -46.01957 | 14260 ft | 393 kts | 0° |
| 2026-04-21 07:49 | -23.12640 | -46.02455 | 14776 ft | 395 kts | 339° |
| 2026-04-21 07:50 | -23.10213 | -46.03869 | 15327 ft | 396 kts | 321° |
| 2026-04-21 07:50 | -23.08304 | -46.05967 | 15857 ft | 397 kts | 309° |
| 2026-04-21 07:50 | -23.06535 | -46.08297 | 16393 ft | 399 kts | 307° |
| 2026-04-21 07:50 | -23.04783 | -46.10652 | 16909 ft | 402 kts | 307° |
| 2026-04-21 07:51 | -23.03017 | -46.13017 | 17440 ft | 404 kts | 307° |
| 2026-04-21 07:51 | -23.01227 | -46.15385 | 17964 ft | 406 kts | 308° |
| 2026-04-21 07:51 | -22.99418 | -46.17755 | 18467 ft | 408 kts | 308° |
| 2026-04-21 07:51 | -22.97597 | -46.20127 | 18889 ft | 411 kts | 308° |
| 2026-04-21 07:52 | -22.95756 | -46.22516 | 19318 ft | 412 kts | 308° |
| 2026-04-21 07:52 | -22.93910 | -46.24909 | 19758 ft | 414 kts | 308° |
| 2026-04-21 07:52 | -22.92057 | -46.27312 | 20182 ft | 416 kts | 308° |
| 2026-04-21 07:52 | -22.90227 | -46.29706 | 20598 ft | 418 kts | 306° |
| 2026-04-21 07:53 | -22.88704 | -46.32375 | 20995 ft | 417 kts | 295° |
| 2026-04-21 07:53 | -22.87436 | -46.35222 | 21412 ft | 419 kts | 293° |
| 2026-04-21 07:53 | -22.86214 | -46.38104 | 21808 ft | 421 kts | 292° |
| 2026-04-21 07:53 | -22.85001 | -46.40971 | 22189 ft | 423 kts | 292° |
| 2026-04-21 07:54 | -22.83755 | -46.43871 | 22576 ft | 425 kts | 293° |
| 2026-04-21 07:54 | -22.82484 | -46.46781 | 22974 ft | 427 kts | 293° |
| 2026-04-21 07:54 | -22.81195 | -46.49697 | 23341 ft | 430 kts | 294° |
| 2026-04-21 07:54 | -22.79888 | -46.52631 | 23695 ft | 432 kts | 294° |
| 2026-04-21 07:55 | -22.78575 | -46.55568 | 24002 ft | 434 kts | 294° |
| 2026-04-21 07:55 | -22.77254 | -46.58519 | 24307 ft | 435 kts | 294° |
| 2026-04-21 07:55 | -22.75927 | -46.61480 | 24615 ft | 437 kts | 294° |
| 2026-04-21 07:55 | -22.74599 | -46.64444 | 24912 ft | 439 kts | 294° |
| 2026-04-21 07:56 | -22.73264 | -46.67422 | 25197 ft | 440 kts | 294° |
| 2026-04-21 07:56 | -22.71938 | -46.70380 | 25476 ft | 442 kts | 294° |
| 2026-04-21 07:56 | -22.70591 | -46.73381 | 25753 ft | 444 kts | 294° |
| 2026-04-21 07:56 | -22.69238 | -46.76394 | 26033 ft | 445 kts | 294° |
| 2026-04-21 07:57 | -22.67875 | -46.79429 | 26300 ft | 447 kts | 294° |
| 2026-04-21 07:57 | -22.66511 | -46.82467 | 26561 ft | 449 kts | 294° |
| 2026-04-21 07:57 | -22.65137 | -46.85514 | 26808 ft | 450 kts | 294° |
| 2026-04-21 07:57 | -22.63759 | -46.88564 | 27060 ft | 452 kts | 294° |
| 2026-04-21 07:58 | -22.62392 | -46.91591 | 27310 ft | 453 kts | 295° |
| 2026-04-21 07:58 | -22.61004 | -46.94662 | 27539 ft | 455 kts | 295° |
| 2026-04-21 07:58 | -22.59615 | -46.97745 | 27774 ft | 457 kts | 294° |
| 2026-04-21 07:58 | -22.58221 | -47.00840 | 27996 ft | 458 kts | 295° |
| 2026-04-21 07:59 | -22.56819 | -47.03950 | 28217 ft | 460 kts | 295° |
| 2026-04-21 07:59 | -22.55419 | -47.07063 | 28433 ft | 461 kts | 294° |
| 2026-04-21 07:59 | -22.54276 | -47.10309 | 28637 ft | 462 kts | 285° |
| 2026-04-21 07:59 | -22.53429 | -47.13675 | 28840 ft | 463 kts | 283° |
| 2026-04-21 08:00 | -22.52664 | -47.17023 | 29034 ft | 464 kts | 283° |
| 2026-04-21 08:00 | -22.51894 | -47.20415 | 29216 ft | 466 kts | 283° |
| 2026-04-21 08:00 | -22.51099 | -47.23815 | 29442 ft | 466 kts | 283° |
| 2026-04-21 08:00 | -22.50279 | -47.27204 | 29735 ft | 465 kts | 284° |
| 2026-04-21 08:01 | -22.49443 | -47.30583 | 30065 ft | 464 kts | 284° |
| 2026-04-21 08:01 | -22.48600 | -47.33952 | 30323 ft | 463 kts | 284° |
| 2026-04-21 08:01 | -22.47755 | -47.37312 | 30547 ft | 463 kts | 284° |
| 2026-04-21 08:02 | -22.46059 | -47.44052 | 31052 ft | 462 kts | 284° |
| 2026-04-21 08:02 | -22.45216 | -47.47403 | 31315 ft | 461 kts | 284° |
| 2026-04-21 08:02 | -22.44375 | -47.50751 | 31556 ft | 461 kts | 284° |
| 2026-04-21 08:02 | -22.43522 | -47.54041 | 31792 ft | 461 kts | 288° |
| 2026-04-21 08:03 | -22.42112 | -47.57153 | 31991 ft | 464 kts | 304° |
| 2026-04-21 08:03 | -22.39990 | -47.59834 | 32282 ft | 463 kts | 312° |
| 2026-04-21 08:03 | -22.37770 | -47.62296 | 32580 ft | 463 kts | 313° |
| 2026-04-21 08:03 | -22.35503 | -47.64758 | 32794 ft | 463 kts | 313° |
| 2026-04-21 08:04 | -22.33222 | -47.67234 | 33015 ft | 464 kts | 313° |
| 2026-04-21 08:04 | -22.30959 | -47.69710 | 33277 ft | 463 kts | 313° |
| 2026-04-21 08:04 | -22.28704 | -47.72197 | 33554 ft | 462 kts | 312° |
| 2026-04-21 08:04 | -22.26462 | -47.74684 | 33801 ft | 462 kts | 312° |
| 2026-04-21 08:05 | -22.24223 | -47.77178 | 34033 ft | 462 kts | 312° |
| 2026-04-21 08:05 | -22.21985 | -47.79672 | 34258 ft | 462 kts | 312° |
| 2026-04-21 08:05 | -22.19747 | -47.82169 | 34477 ft | 462 kts | 312° |
| 2026-04-21 08:05 | -22.17513 | -47.84657 | 34687 ft | 461 kts | 312° |
| 2026-04-21 08:06 | -22.15272 | -47.87153 | 34890 ft | 461 kts | 311° |
| 2026-04-21 08:06 | -22.13039 | -47.89637 | 35105 ft | 461 kts | 311° |
| 2026-04-21 08:06 | -22.10830 | -47.92092 | 35320 ft | 460 kts | 311° |
| 2026-04-21 08:06 | -22.08606 | -47.94563 | 35546 ft | 459 kts | 311° |
| 2026-04-21 08:07 | -22.06378 | -47.97037 | 35752 ft | 459 kts | 311° |
| 2026-04-21 08:07 | -22.04157 | -47.99502 | 35955 ft | 459 kts | 311° |
| 2026-04-21 08:07 | -22.01929 | -48.01975 | 36056 ft | 460 kts | 311° |
| 2026-04-21 08:08 | -21.97444 | -48.06947 | 36055 ft | 461 kts | 311° |
| 2026-04-21 08:08 | -21.92992 | -48.11875 | 36045 ft | 457 kts | 311° |
| 2026-04-21 08:09 | -21.88587 | -48.16749 | 36049 ft | 455 kts | 311° |
| 2026-04-21 08:09 | -21.84165 | -48.21638 | 36047 ft | 454 kts | 311° |
| 2026-04-21 08:10 | -21.79785 | -48.26476 | 36050 ft | 454 kts | 311° |
| 2026-04-21 08:10 | -21.75363 | -48.31352 | 36048 ft | 455 kts | 311° |
| 2026-04-21 08:11 | -21.70932 | -48.36234 | 36049 ft | 457 kts | 312° |
| 2026-04-21 08:11 | -21.66481 | -48.41134 | 36050 ft | 459 kts | 312° |
| 2026-04-21 08:12 | -21.62000 | -48.46062 | 36044 ft | 461 kts | 312° |
| 2026-04-21 08:12 | -21.57523 | -48.50979 | 36045 ft | 463 kts | 312° |
| 2026-04-21 08:13 | -21.53006 | -48.55935 | 36044 ft | 464 kts | 312° |
| 2026-04-21 08:13 | -21.48472 | -48.60904 | 36040 ft | 466 kts | 312° |
| 2026-04-21 08:14 | -21.43956 | -48.65849 | 36043 ft | 467 kts | 312° |
| 2026-04-21 08:14 | -21.39406 | -48.70828 | 36039 ft | 467 kts | 312° |
| 2026-04-21 08:15 | -21.34857 | -48.75802 | 36036 ft | 466 kts | 312° |
| 2026-04-21 08:15 | -21.30314 | -48.80762 | 36039 ft | 466 kts | 312° |
| 2026-04-21 08:16 | -21.25761 | -48.85725 | 36041 ft | 467 kts | 312° |
| 2026-04-21 08:16 | -21.21204 | -48.90694 | 36043 ft | 473 kts | 312° |
| 2026-04-21 08:17 | -21.16573 | -48.95748 | 36037 ft | 475 kts | 312° |
| 2026-04-21 08:17 | -21.11928 | -49.00817 | 36036 ft | 476 kts | 312° |
| 2026-04-21 08:18 | -21.07273 | -49.05886 | 36036 ft | 476 kts | 312° |
| 2026-04-21 08:18 | -21.02653 | -49.10913 | 36034 ft | 476 kts | 312° |
| 2026-04-21 08:19 | -20.98005 | -49.15962 | 36037 ft | 475 kts | 312° |
| 2026-04-21 08:19 | -20.93367 | -49.20998 | 36040 ft | 474 kts | 312° |
| 2026-04-21 08:20 | -20.88743 | -49.26014 | 36044 ft | 473 kts | 312° |
| 2026-04-21 08:20 | -20.84125 | -49.31018 | 36047 ft | 473 kts | 312° |
| 2026-04-21 08:21 | -20.79504 | -49.36020 | 36047 ft | 472 kts | 312° |
| 2026-04-21 08:21 | -20.74884 | -49.41016 | 36059 ft | 472 kts | 312° |
| 2026-04-21 08:22 | -20.70262 | -49.46012 | 36042 ft | 472 kts | 312° |
| 2026-04-21 08:22 | -20.65646 | -49.50997 | 36043 ft | 472 kts | 312° |
| 2026-04-21 08:23 | -20.61049 | -49.55954 | 36045 ft | 472 kts | 312° |
| 2026-04-21 08:23 | -20.56430 | -49.60932 | 36028 ft | 472 kts | 313° |
| 2026-04-21 08:24 | -20.51804 | -49.65913 | 36023 ft | 472 kts | 313° |
| 2026-04-21 08:24 | -20.47183 | -49.70884 | 36032 ft | 471 kts | 313° |
| 2026-04-21 08:25 | -20.42561 | -49.75851 | 36020 ft | 472 kts | 313° |
| 2026-04-21 08:25 | -20.37950 | -49.80801 | 36022 ft | 472 kts | 313° |
| 2026-04-21 08:26 | -20.33328 | -49.85759 | 36017 ft | 472 kts | 313° |
| 2026-04-21 08:26 | -20.28697 | -49.90722 | 36028 ft | 472 kts | 313° |
| 2026-04-21 08:27 | -20.24054 | -49.95695 | 36026 ft | 473 kts | 313° |
| 2026-04-21 08:27 | -20.19440 | -50.00631 | 36020 ft | 473 kts | 313° |
| 2026-04-21 08:28 | -20.14789 | -50.05601 | 36011 ft | 473 kts | 313° |
| 2026-04-21 08:28 | -20.10139 | -50.10566 | 36009 ft | 474 kts | 313° |
| 2026-04-21 08:29 | -20.05481 | -50.15532 | 36012 ft | 474 kts | 313° |
| 2026-04-21 08:29 | -20.00817 | -50.20503 | 36006 ft | 474 kts | 313° |
| 2026-04-21 08:30 | -19.96154 | -50.25473 | 36009 ft | 474 kts | 313° |
| 2026-04-21 08:30 | -19.91521 | -50.30411 | 36008 ft | 475 kts | 313° |
| 2026-04-21 08:31 | -19.86848 | -50.35383 | 35999 ft | 475 kts | 313° |
| 2026-04-21 08:31 | -19.82177 | -50.40347 | 36004 ft | 475 kts | 313° |
| 2026-04-21 08:32 | -19.78284 | -50.44479 | 36009 ft | 475 kts | 313° |
| 2026-04-21 08:32 | -19.73606 | -50.49441 | 36000 ft | 476 kts | 313° |
| 2026-04-21 08:33 | -19.68903 | -50.54425 | 35991 ft | 476 kts | 313° |
| 2026-04-21 08:33 | -19.64281 | -50.59463 | 35999 ft | 476 kts | 309° |
| 2026-04-21 08:34 | -19.59952 | -50.64786 | 35999 ft | 476 kts | 307° |
| 2026-04-21 08:34 | -19.55691 | -50.70160 | 35999 ft | 476 kts | 307° |
| 2026-04-21 08:35 | -19.51396 | -50.75520 | 35997 ft | 477 kts | 308° |
| 2026-04-21 08:35 | -19.47077 | -50.80856 | 35996 ft | 477 kts | 308° |
| 2026-04-21 08:36 | -19.42759 | -50.86168 | 35994 ft | 477 kts | 308° |
| 2026-04-21 08:36 | -19.38421 | -50.91500 | 35994 ft | 478 kts | 307° |
| 2026-04-21 08:37 | -19.34076 | -50.96838 | 36001 ft | 478 kts | 307° |
| 2026-04-21 08:37 | -19.29733 | -51.02171 | 35994 ft | 478 kts | 307° |
| 2026-04-21 08:38 | -19.25387 | -51.07502 | 36002 ft | 478 kts | 307° |
| 2026-04-21 08:38 | -19.21041 | -51.12828 | 35990 ft | 478 kts | 307° |
| 2026-04-21 08:39 | -19.16698 | -51.18147 | 36004 ft | 478 kts | 307° |
| 2026-04-21 08:39 | -19.12372 | -51.23439 | 36001 ft | 477 kts | 307° |
| 2026-04-21 08:40 | -19.08030 | -51.28745 | 35994 ft | 477 kts | 307° |
| 2026-04-21 08:40 | -19.03679 | -51.34060 | 36001 ft | 477 kts | 307° |
| 2026-04-21 08:41 | -18.99327 | -51.39370 | 36002 ft | 477 kts | 307° |
| 2026-04-21 08:41 | -18.94981 | -51.44668 | 36001 ft | 477 kts | 307° |
| 2026-04-21 08:42 | -18.90661 | -51.49930 | 35997 ft | 477 kts | 307° |
| 2026-04-21 08:42 | -18.86314 | -51.55221 | 36002 ft | 476 kts | 307° |
| 2026-04-21 08:43 | -18.81966 | -51.60507 | 36001 ft | 476 kts | 307° |
| 2026-04-21 08:43 | -18.77621 | -51.65788 | 36001 ft | 476 kts | 307° |
| 2026-04-21 08:44 | -18.73265 | -51.71075 | 35999 ft | 476 kts | 307° |
| 2026-04-21 08:44 | -18.68907 | -51.76361 | 36004 ft | 477 kts | 307° |
| 2026-04-21 08:45 | -18.64551 | -51.81640 | 36002 ft | 477 kts | 308° |
| 2026-04-21 08:45 | -18.60221 | -51.86882 | 36006 ft | 477 kts | 308° |
| 2026-04-21 08:46 | -18.55861 | -51.92158 | 36005 ft | 477 kts | 308° |
| 2026-04-21 08:46 | -18.51493 | -51.97436 | 36003 ft | 477 kts | 308° |
| 2026-04-21 08:47 | -18.47138 | -52.02697 | 36011 ft | 477 kts | 308° |
| 2026-04-21 08:47 | -18.42774 | -52.07963 | 36009 ft | 476 kts | 308° |
| 2026-04-21 08:48 | -18.38407 | -52.13228 | 36009 ft | 476 kts | 308° |
| 2026-04-21 08:48 | -18.34075 | -52.18447 | 36015 ft | 476 kts | 308° |
| 2026-04-21 08:49 | -18.29709 | -52.23701 | 36014 ft | 476 kts | 308° |
| 2026-04-21 08:49 | -18.25337 | -52.28961 | 36014 ft | 476 kts | 308° |
| 2026-04-21 08:50 | -18.20968 | -52.34211 | 36016 ft | 476 kts | 308° |
| 2026-04-21 08:50 | -18.16597 | -52.39458 | 36013 ft | 476 kts | 307° |
| 2026-04-21 08:51 | -18.12255 | -52.44667 | 36015 ft | 476 kts | 308° |
| 2026-04-21 08:51 | -18.07894 | -52.49894 | 36013 ft | 476 kts | 307° |
| 2026-04-21 08:52 | -18.03519 | -52.55134 | 36014 ft | 475 kts | 307° |
| 2026-04-21 08:52 | -17.99154 | -52.60358 | 36019 ft | 475 kts | 307° |
| 2026-04-21 08:53 | -17.94794 | -52.65570 | 36009 ft | 475 kts | 307° |
| 2026-04-21 08:53 | -17.90458 | -52.70750 | 36013 ft | 474 kts | 307° |
| 2026-04-21 08:54 | -17.86095 | -52.75961 | 36016 ft | 474 kts | 307° |
| 2026-04-21 08:54 | -17.81735 | -52.81162 | 36017 ft | 474 kts | 307° |
| 2026-04-21 08:55 | -17.77377 | -52.86355 | 36017 ft | 474 kts | 307° |
| 2026-04-21 08:55 | -17.73018 | -52.91547 | 36012 ft | 473 kts | 306° |
| 2026-04-21 08:56 | -17.68653 | -52.96742 | 36018 ft | 473 kts | 306° |
| 2026-04-21 08:56 | -17.64316 | -53.01900 | 36007 ft | 473 kts | 306° |
| 2026-04-21 08:57 | -17.59963 | -53.07071 | 36007 ft | 473 kts | 306° |
| 2026-04-21 08:57 | -17.55602 | -53.12249 | 36009 ft | 473 kts | 306° |
| 2026-04-21 08:58 | -17.51240 | -53.17423 | 36008 ft | 472 kts | 306° |
| 2026-04-21 08:58 | -17.46917 | -53.22548 | 36001 ft | 472 kts | 306° |
| 2026-04-21 08:59 | -17.42564 | -53.27703 | 36005 ft | 472 kts | 306° |
| 2026-04-21 08:59 | -17.38202 | -53.32865 | 36000 ft | 472 kts | 306° |
| 2026-04-21 09:00 | -17.33856 | -53.38004 | 36000 ft | 472 kts | 306° |
| 2026-04-21 09:00 | -17.29525 | -53.43120 | 36002 ft | 471 kts | 306° |
| 2026-04-21 09:01 | -17.25173 | -53.48258 | 35995 ft | 472 kts | 306° |
| 2026-04-21 09:01 | -17.20817 | -53.53396 | 36005 ft | 472 kts | 306° |
| 2026-04-21 09:02 | -17.16453 | -53.58538 | 35998 ft | 472 kts | 306° |
| 2026-04-21 09:02 | -17.12082 | -53.63684 | 35994 ft | 472 kts | 307° |
| 2026-04-21 09:03 | -17.05695 | -53.71467 | 35996 ft | 470 kts | 304° |
| 2026-04-21 09:03 | -17.01617 | -53.76825 | 35992 ft | 470 kts | 303° |
| 2026-04-21 09:04 | -16.97533 | -53.82177 | 35990 ft | 470 kts | 304° |
| 2026-04-21 09:04 | -16.93457 | -53.87462 | 35984 ft | 470 kts | 304° |
| 2026-04-21 09:05 | -16.89339 | -53.92771 | 35983 ft | 470 kts | 304° |
| 2026-04-21 09:05 | -16.85219 | -53.98073 | 35980 ft | 470 kts | 304° |
| 2026-04-21 09:06 | -16.81095 | -54.03377 | 35982 ft | 470 kts | 304° |
| 2026-04-21 09:06 | -16.76972 | -54.08677 | 35975 ft | 470 kts | 304° |
| 2026-04-21 09:07 | -16.72848 | -54.13974 | 35968 ft | 470 kts | 305° |
| 2026-04-21 09:07 | -16.68743 | -54.19242 | 35965 ft | 470 kts | 305° |
| 2026-04-21 09:08 | -16.64609 | -54.24544 | 35963 ft | 471 kts | 305° |
| 2026-04-21 09:08 | -16.60477 | -54.29839 | 35965 ft | 471 kts | 305° |
| 2026-04-21 09:09 | -16.56336 | -54.35142 | 35955 ft | 471 kts | 305° |
| 2026-04-21 09:09 | -16.52197 | -54.40439 | 35958 ft | 471 kts | 305° |
| 2026-04-21 09:10 | -16.48053 | -54.45739 | 35957 ft | 472 kts | 305° |
| 2026-04-21 09:10 | -16.43905 | -54.51039 | 35954 ft | 472 kts | 306° |
| 2026-04-21 09:11 | -16.39771 | -54.56317 | 35953 ft | 472 kts | 306° |
| 2026-04-21 09:11 | -16.36288 | -54.60760 | 35953 ft | 472 kts | 306° |
| 2026-04-21 09:12 | -16.32160 | -54.66023 | 35951 ft | 472 kts | 306° |
| 2026-04-21 09:12 | -16.28003 | -54.71319 | 35955 ft | 472 kts | 306° |
| 2026-04-21 09:13 | -16.23844 | -54.76616 | 35950 ft | 472 kts | 306° |
| 2026-04-21 09:13 | -16.19676 | -54.81919 | 35954 ft | 472 kts | 306° |
| 2026-04-21 09:14 | -16.15518 | -54.87205 | 35953 ft | 472 kts | 306° |
| 2026-04-21 09:14 | -16.11356 | -54.92493 | 35971 ft | 472 kts | 306° |
| 2026-04-21 09:15 | -16.07196 | -54.97771 | 35965 ft | 472 kts | 306° |
| 2026-04-21 09:15 | -16.03065 | -55.03011 | 35975 ft | 471 kts | 306° |
| 2026-04-21 09:16 | -15.98906 | -55.08283 | 35964 ft | 471 kts | 306° |
| 2026-04-21 09:16 | -15.94741 | -55.13557 | 35976 ft | 471 kts | 306° |
| 2026-04-21 09:17 | -15.90572 | -55.18836 | 35976 ft | 471 kts | 307° |
| 2026-04-21 09:17 | -15.86433 | -55.24071 | 35985 ft | 471 kts | 307° |
| 2026-04-21 09:18 | -15.82265 | -55.29339 | 35969 ft | 471 kts | 307° |
| 2026-04-21 09:18 | -15.78102 | -55.34596 | 35982 ft | 471 kts | 307° |
| 2026-04-21 09:19 | -15.73960 | -55.39825 | 35977 ft | 471 kts | 307° |
| 2026-04-21 09:19 | -15.69787 | -55.45087 | 35967 ft | 472 kts | 307° |
| 2026-04-21 09:20 | -15.65608 | -55.50353 | 35976 ft | 472 kts | 307° |
| 2026-04-21 09:20 | -15.61420 | -55.55628 | 35966 ft | 473 kts | 307° |
| 2026-04-21 09:21 | -15.57263 | -55.60860 | 35968 ft | 473 kts | 307° |
| 2026-04-21 09:21 | -15.53071 | -55.66132 | 35964 ft | 473 kts | 307° |
| 2026-04-21 09:22 | -15.48876 | -55.71404 | 35958 ft | 474 kts | 307° |
| 2026-04-21 09:22 | -15.44680 | -55.76673 | 35952 ft | 474 kts | 307° |
| 2026-04-21 09:23 | -15.40477 | -55.81950 | 35954 ft | 474 kts | 307° |
| 2026-04-21 09:23 | -15.36275 | -55.87219 | 35953 ft | 474 kts | 307° |
| 2026-04-21 09:24 | -15.32098 | -55.92452 | 35959 ft | 474 kts | 307° |
| 2026-04-21 09:24 | -15.27892 | -55.97719 | 35955 ft | 474 kts | 307° |
| 2026-04-21 09:25 | -15.23687 | -56.02982 | 35950 ft | 474 kts | 307° |
| 2026-04-21 09:25 | -15.19473 | -56.08253 | 35958 ft | 474 kts | 307° |
| 2026-04-21 09:26 | -15.15263 | -56.13515 | 35957 ft | 474 kts | 307° |
| 2026-04-21 09:26 | -15.11058 | -56.18767 | 35949 ft | 474 kts | 308° |
| 2026-04-21 09:27 | -15.06868 | -56.23996 | 35956 ft | 474 kts | 308° |
| 2026-04-21 09:27 | -15.02650 | -56.29257 | 35952 ft | 474 kts | 308° |
| 2026-04-21 09:28 | -14.98438 | -56.34508 | 35952 ft | 474 kts | 308° |
| 2026-04-21 09:28 | -14.94215 | -56.39767 | 35949 ft | 474 kts | 308° |
| 2026-04-21 09:29 | -14.90022 | -56.44986 | 35961 ft | 474 kts | 308° |
| 2026-04-21 09:29 | -14.85793 | -56.50246 | 35954 ft | 474 kts | 308° |
| 2026-04-21 09:30 | -14.81574 | -56.55490 | 35957 ft | 474 kts | 308° |
| 2026-04-21 09:30 | -14.77358 | -56.60729 | 35960 ft | 474 kts | 308° |
| 2026-04-21 09:31 | -14.73162 | -56.65937 | 35964 ft | 474 kts | 308° |
| 2026-04-21 09:31 | -14.68942 | -56.71172 | 35967 ft | 473 kts | 308° |
| 2026-04-21 09:32 | -14.64722 | -56.76402 | 35965 ft | 473 kts | 308° |
| 2026-04-21 09:32 | -14.60503 | -56.81628 | 35962 ft | 473 kts | 308° |
| 2026-04-21 09:33 | -14.56324 | -56.86804 | 35964 ft | 472 kts | 308° |
| 2026-04-21 09:33 | -14.52115 | -56.92011 | 35964 ft | 472 kts | 308° |
| 2026-04-21 09:34 | -14.47908 | -56.97213 | 35964 ft | 472 kts | 308° |
| 2026-04-21 09:34 | -14.43699 | -57.02413 | 35965 ft | 471 kts | 309° |
| 2026-04-21 09:35 | -14.39514 | -57.07580 | 35975 ft | 471 kts | 308° |
| 2026-04-21 09:35 | -14.35310 | -57.12768 | 35976 ft | 471 kts | 309° |
| 2026-04-21 09:36 | -14.31091 | -57.17971 | 35979 ft | 471 kts | 309° |
| 2026-04-21 09:36 | -14.26905 | -57.23129 | 35978 ft | 472 kts | 309° |
| 2026-04-21 09:37 | -14.22695 | -57.28315 | 35982 ft | 472 kts | 309° |
| 2026-04-21 09:37 | -14.18481 | -57.33503 | 35984 ft | 472 kts | 309° |
| 2026-04-21 09:38 | -14.14252 | -57.38706 | 35985 ft | 472 kts | 309° |
| 2026-04-21 09:38 | -14.10025 | -57.43902 | 35987 ft | 473 kts | 309° |
| 2026-04-21 09:39 | -14.05797 | -57.49096 | 35990 ft | 473 kts | 309° |
| 2026-04-21 09:39 | -14.01588 | -57.54264 | 35991 ft | 473 kts | 309° |
| 2026-04-21 09:40 | -13.97350 | -57.59464 | 35989 ft | 473 kts | 309° |
| 2026-04-21 09:40 | -13.93117 | -57.64654 | 35993 ft | 473 kts | 309° |
| 2026-04-21 09:41 | -13.88875 | -57.69853 | 35995 ft | 473 kts | 309° |
| 2026-04-21 09:41 | -13.84656 | -57.75020 | 35991 ft | 473 kts | 309° |
| 2026-04-21 09:42 | -13.80411 | -57.80215 | 35996 ft | 473 kts | 309° |
| 2026-04-21 09:42 | -13.76173 | -57.85399 | 35993 ft | 473 kts | 309° |
| 2026-04-21 09:43 | -13.71954 | -57.90557 | 35996 ft | 473 kts | 309° |
| 2026-04-21 09:43 | -13.67711 | -57.95738 | 35999 ft | 473 kts | 309° |
| 2026-04-21 09:44 | -13.63461 | -58.00928 | 35991 ft | 473 kts | 309° |
| 2026-04-21 09:44 | -13.59243 | -58.06075 | 35991 ft | 473 kts | 309° |
| 2026-04-21 09:45 | -13.54970 | -58.11285 | 35997 ft | 473 kts | 309° |
| 2026-04-21 09:45 | -13.50751 | -58.16428 | 35995 ft | 473 kts | 309° |
| 2026-04-21 09:46 | -13.46500 | -58.21605 | 35995 ft | 473 kts | 309° |
| 2026-04-21 09:46 | -13.42251 | -58.26777 | 35996 ft | 473 kts | 310° |
| 2026-04-21 09:47 | -13.38003 | -58.31944 | 35992 ft | 473 kts | 309° |
| 2026-04-21 09:47 | -13.33783 | -58.37074 | 35993 ft | 473 kts | 310° |
| 2026-04-21 09:48 | -13.29529 | -58.42242 | 35993 ft | 473 kts | 309° |
| 2026-04-21 09:48 | -13.25285 | -58.47397 | 35989 ft | 473 kts | 310° |
| 2026-04-21 09:49 | -13.21027 | -58.52562 | 35993 ft | 473 kts | 309° |
| 2026-04-21 09:49 | -13.16772 | -58.57722 | 35994 ft | 473 kts | 309° |
| 2026-04-21 09:50 | -13.12541 | -58.62851 | 35989 ft | 473 kts | 310° |
| 2026-04-21 09:50 | -13.08281 | -58.68011 | 35990 ft | 473 kts | 310° |
| 2026-04-21 09:51 | -13.04019 | -58.73171 | 35989 ft | 473 kts | 310° |
| 2026-04-21 09:51 | -12.99777 | -58.78303 | 35992 ft | 474 kts | 310° |
| 2026-04-21 09:52 | -12.95513 | -58.83459 | 35988 ft | 474 kts | 310° |
| 2026-04-21 09:52 | -12.91242 | -58.88619 | 35991 ft | 474 kts | 310° |
| 2026-04-21 09:53 | -12.86967 | -58.93780 | 35987 ft | 474 kts | 310° |
| 2026-04-21 09:53 | -12.82709 | -58.98916 | 35989 ft | 474 kts | 310° |
| 2026-04-21 09:54 | -12.78460 | -59.04085 | 35993 ft | 475 kts | 309° |
| 2026-04-21 09:54 | -12.74365 | -59.09405 | 35989 ft | 475 kts | 307° |
| 2026-04-21 09:55 | -12.71003 | -59.13857 | 35992 ft | 475 kts | 307° |
| 2026-04-21 09:55 | -12.66277 | -59.20072 | 35992 ft | 475 kts | 308° |
| 2026-04-21 09:56 | -12.62885 | -59.24499 | 35994 ft | 475 kts | 308° |
| 2026-04-21 09:56 | -12.58787 | -59.29829 | 35988 ft | 475 kts | 308° |
| 2026-04-21 09:57 | -12.54697 | -59.35144 | 35990 ft | 475 kts | 308° |
| 2026-04-21 09:57 | -12.50606 | -59.40462 | 35991 ft | 475 kts | 308° |
| 2026-04-21 09:58 | -12.46513 | -59.45780 | 35994 ft | 475 kts | 308° |
| 2026-04-21 09:58 | -12.42422 | -59.51090 | 35992 ft | 475 kts | 308° |
| 2026-04-21 09:59 | -12.38341 | -59.56386 | 35987 ft | 475 kts | 308° |
| 2026-04-21 09:59 | -12.34253 | -59.61690 | 35995 ft | 475 kts | 308° |
| 2026-04-21 10:00 | -12.30157 | -59.66998 | 35989 ft | 475 kts | 308° |
| 2026-04-21 10:00 | -12.26060 | -59.72305 | 35995 ft | 475 kts | 308° |
| 2026-04-21 10:01 | -12.21969 | -59.77602 | 35999 ft | 475 kts | 309° |
| 2026-04-21 10:01 | -12.17877 | -59.82898 | 35993 ft | 475 kts | 308° |
| 2026-04-21 10:02 | -12.11752 | -59.90818 | 35988 ft | 475 kts | 309° |
| 2026-04-21 10:03 | -12.07656 | -59.96112 | 35995 ft | 474 kts | 309° |
| 2026-04-21 10:03 | -12.03556 | -60.01406 | 35988 ft | 474 kts | 309° |
| 2026-04-21 10:04 | -11.99465 | -60.06687 | 35993 ft | 474 kts | 309° |
| 2026-04-21 10:04 | -11.95368 | -60.11970 | 35986 ft | 474 kts | 309° |
| 2026-04-21 10:05 | -11.91282 | -60.17239 | 35989 ft | 474 kts | 309° |
| 2026-04-21 10:05 | -11.87209 | -60.22488 | 35988 ft | 473 kts | 309° |
| 2026-04-21 10:06 | -11.83116 | -60.27759 | 35986 ft | 473 kts | 309° |
| 2026-04-21 10:06 | -11.79016 | -60.33037 | 35988 ft | 474 kts | 309° |
| 2026-04-21 10:07 | -11.74915 | -60.38313 | 35984 ft | 474 kts | 309° |
| 2026-04-21 10:07 | -11.70816 | -60.43584 | 35985 ft | 474 kts | 309° |
| 2026-04-21 10:08 | -11.66733 | -60.48832 | 35982 ft | 475 kts | 309° |
| 2026-04-21 10:08 | -11.62619 | -60.54116 | 35988 ft | 475 kts | 309° |
| 2026-04-21 10:09 | -11.58504 | -60.59399 | 35986 ft | 476 kts | 309° |
| 2026-04-21 10:09 | -11.54369 | -60.64704 | 35987 ft | 477 kts | 309° |
| 2026-04-21 10:10 | -11.50261 | -60.69970 | 35979 ft | 477 kts | 309° |
| 2026-04-21 10:10 | -11.46117 | -60.75282 | 35979 ft | 478 kts | 309° |
| 2026-04-21 10:11 | -11.41972 | -60.80592 | 35977 ft | 478 kts | 309° |
| 2026-04-21 10:11 | -11.37828 | -60.85898 | 35976 ft | 478 kts | 309° |
| 2026-04-21 10:12 | -11.33705 | -60.91174 | 35982 ft | 479 kts | 309° |
| 2026-04-21 10:12 | -11.29541 | -60.96501 | 35976 ft | 479 kts | 309° |
| 2026-04-21 10:13 | -11.25378 | -61.01823 | 35977 ft | 479 kts | 309° |
| 2026-04-21 10:13 | -11.21249 | -61.07099 | 35975 ft | 479 kts | 309° |
| 2026-04-21 10:14 | -11.17082 | -61.12422 | 35976 ft | 479 kts | 309° |
| 2026-04-21 10:14 | -11.12928 | -61.17723 | 35974 ft | 479 kts | 309° |
| 2026-04-21 10:15 | -11.08776 | -61.23021 | 35973 ft | 478 kts | 309° |
| 2026-04-21 10:15 | -11.04637 | -61.28298 | 35969 ft | 478 kts | 309° |
| 2026-04-21 10:16 | -11.00477 | -61.33600 | 35975 ft | 478 kts | 309° |
| 2026-04-21 10:16 | -10.96345 | -61.38865 | 35975 ft | 478 kts | 309° |
| 2026-04-21 10:17 | -10.92190 | -61.44154 | 35969 ft | 478 kts | 309° |
| 2026-04-21 10:17 | -10.88030 | -61.49449 | 35969 ft | 478 kts | 309° |
| 2026-04-21 10:18 | -10.83905 | -61.54696 | 35972 ft | 477 kts | 309° |
| 2026-04-21 10:18 | -10.79755 | -61.59972 | 35969 ft | 477 kts | 309° |
| 2026-04-21 10:19 | -10.75604 | -61.65249 | 35966 ft | 477 kts | 309° |
| 2026-04-21 10:19 | -10.71452 | -61.70522 | 35970 ft | 477 kts | 309° |
| 2026-04-21 10:20 | -10.67301 | -61.75791 | 35968 ft | 477 kts | 310° |
| 2026-04-21 10:20 | -10.63150 | -61.81057 | 35957 ft | 477 kts | 310° |
| 2026-04-21 10:21 | -10.58997 | -61.86325 | 35963 ft | 477 kts | 310° |
| 2026-04-21 10:21 | -10.54831 | -61.91605 | 35964 ft | 477 kts | 309° |
| 2026-04-21 10:22 | -10.50676 | -61.96872 | 35962 ft | 477 kts | 310° |
| 2026-04-21 10:22 | -10.46519 | -62.02137 | 35957 ft | 477 kts | 310° |
| 2026-04-21 10:23 | -10.42361 | -62.07400 | 35963 ft | 477 kts | 310° |
| 2026-04-21 10:23 | -10.38216 | -62.12643 | 35960 ft | 477 kts | 310° |
| 2026-04-21 10:24 | -10.34053 | -62.17907 | 35962 ft | 477 kts | 310° |
| 2026-04-21 10:24 | -10.29890 | -62.23170 | 35962 ft | 477 kts | 310° |
| 2026-04-21 10:25 | -10.25727 | -62.28430 | 35963 ft | 478 kts | 310° |
| 2026-04-21 10:25 | -10.21581 | -62.33665 | 35838 ft | 480 kts | 310° |
| 2026-04-21 10:25 | -10.19466 | -62.36336 | 35156 ft | 486 kts | 310° |
| 2026-04-21 10:26 | -10.17348 | -62.39009 | 34493 ft | 483 kts | 310° |
| 2026-04-21 10:26 | -10.15259 | -62.41645 | 33740 ft | 485 kts | 309° |
| 2026-04-21 10:26 | -10.13142 | -62.44316 | 33085 ft | 482 kts | 309° |
| 2026-04-21 10:26 | -10.11047 | -62.46959 | 32561 ft | 477 kts | 310° |
| 2026-04-21 10:27 | -10.08971 | -62.49579 | 32034 ft | 473 kts | 309° |
| 2026-04-21 10:27 | -10.06913 | -62.52173 | 31525 ft | 468 kts | 310° |
| 2026-04-21 10:27 | -10.04878 | -62.54738 | 31017 ft | 464 kts | 310° |
| 2026-04-21 10:27 | -10.02856 | -62.57284 | 30521 ft | 460 kts | 310° |
| 2026-04-21 10:28 | -10.00852 | -62.59808 | 29992 ft | 458 kts | 310° |
| 2026-04-21 10:28 | -9.98860 | -62.62316 | 29427 ft | 454 kts | 310° |
| 2026-04-21 10:28 | -9.96917 | -62.64763 | 28891 ft | 449 kts | 310° |
| 2026-04-21 10:28 | -9.94975 | -62.67208 | 28368 ft | 445 kts | 310° |
| 2026-04-21 10:29 | -9.93031 | -62.69655 | 27854 ft | 440 kts | 310° |
| 2026-04-21 10:29 | -9.91114 | -62.72068 | 27348 ft | 436 kts | 310° |
| 2026-04-21 10:29 | -9.89214 | -62.74457 | 26855 ft | 432 kts | 310° |
| 2026-04-21 10:29 | -9.87329 | -62.76828 | 26367 ft | 429 kts | 309° |
| 2026-04-21 10:30 | -9.85465 | -62.79172 | 25878 ft | 426 kts | 309° |
| 2026-04-21 10:30 | -9.83634 | -62.81475 | 25382 ft | 423 kts | 309° |
| 2026-04-21 10:30 | -9.81784 | -62.83800 | 24893 ft | 421 kts | 309° |
| 2026-04-21 10:30 | -9.79951 | -62.86105 | 24395 ft | 419 kts | 309° |
| 2026-04-21 10:31 | -9.78130 | -62.88395 | 23901 ft | 417 kts | 309° |
| 2026-04-21 10:31 | -9.76309 | -62.90684 | 23390 ft | 416 kts | 309° |
| 2026-04-21 10:31 | -9.74496 | -62.92961 | 22845 ft | 413 kts | 309° |
| 2026-04-21 10:31 | -9.72700 | -62.95218 | 22338 ft | 409 kts | 309° |
| 2026-04-21 10:32 | -9.70917 | -62.97456 | 21859 ft | 406 kts | 309° |
| 2026-04-21 10:32 | -9.69151 | -62.99674 | 21377 ft | 402 kts | 309° |
| 2026-04-21 10:32 | -9.67397 | -63.01875 | 20905 ft | 399 kts | 309° |
| 2026-04-21 10:32 | -9.65657 | -63.04060 | 20439 ft | 396 kts | 309° |
| 2026-04-21 10:33 | -9.63949 | -63.06203 | 19983 ft | 393 kts | 309° |
| 2026-04-21 10:33 | -9.62238 | -63.08349 | 19509 ft | 391 kts | 309° |
| 2026-04-21 10:33 | -9.60531 | -63.10489 | 19044 ft | 389 kts | 309° |
| 2026-04-21 10:33 | -9.58837 | -63.12613 | 18575 ft | 387 kts | 309° |
| 2026-04-21 10:34 | -9.57144 | -63.14737 | 18089 ft | 385 kts | 309° |
| 2026-04-21 10:34 | -9.55463 | -63.16843 | 17588 ft | 383 kts | 309° |
| 2026-04-21 10:34 | -9.53772 | -63.18963 | 17112 ft | 379 kts | 309° |
| 2026-04-21 10:34 | -9.52118 | -63.21036 | 16654 ft | 376 kts | 309° |
| 2026-04-21 10:35 | -9.50482 | -63.23085 | 16206 ft | 373 kts | 309° |
| 2026-04-21 10:35 | -9.48857 | -63.25121 | 15767 ft | 370 kts | 309° |
| 2026-04-21 10:35 | -9.47246 | -63.27137 | 15315 ft | 367 kts | 309° |
| 2026-04-21 10:35 | -9.45641 | -63.29146 | 14885 ft | 364 kts | 309° |
| 2026-04-21 10:36 | -9.44053 | -63.31133 | 14431 ft | 363 kts | 309° |
| 2026-04-21 10:36 | -9.42489 | -63.33091 | 14003 ft | 361 kts | 309° |
| 2026-04-21 10:36 | -9.40911 | -63.35064 | 13533 ft | 359 kts | 309° |
| 2026-04-21 10:36 | -9.39205 | -63.36903 | 13061 ft | 356 kts | 317° |
| 2026-04-21 10:37 | -9.37374 | -63.38574 | 12612 ft | 353 kts | 319° |
| 2026-04-21 10:37 | -9.36149 | -63.39659 | 12316 ft | 351 kts | 319° |
| 2026-04-21 10:37 | -9.34312 | -63.41274 | 11884 ft | 348 kts | 319° |
| 2026-04-21 10:37 | -9.32488 | -63.42880 | 11457 ft | 345 kts | 319° |
| 2026-04-21 10:38 | -9.30085 | -63.45011 | 10895 ft | 341 kts | 319° |
| 2026-04-21 10:38 | -9.28915 | -63.46054 | 10608 ft | 333 kts | 318° |
| 2026-04-21 10:38 | -9.27227 | -63.47562 | 10466 ft | 314 kts | 318° |
| 2026-04-21 10:38 | -9.25634 | -63.48989 | 10312 ft | 297 kts | 318° |
| 2026-04-21 10:39 | -9.24147 | -63.50322 | 10178 ft | 281 kts | 318° |
| 2026-04-21 10:39 | -9.22713 | -63.51608 | 10059 ft | 270 kts | 318° |
| 2026-04-21 10:39 | -9.21317 | -63.52859 | 9951 ft | 267 kts | 318° |
| 2026-04-21 10:39 | -9.19899 | -63.54132 | 9676 ft | 277 kts | 318° |
| 2026-04-21 10:40 | -9.18435 | -63.55445 | 9386 ft | 284 kts | 318° |
| 2026-04-21 10:40 | -9.16955 | -63.56773 | 9091 ft | 283 kts | 318° |
| 2026-04-21 10:40 | -9.15483 | -63.58094 | 8781 ft | 282 kts | 318° |
| 2026-04-21 10:40 | -9.14036 | -63.59392 | 8488 ft | 281 kts | 318° |
| 2026-04-21 10:41 | -9.12577 | -63.60701 | 8191 ft | 280 kts | 318° |
| 2026-04-21 10:41 | -9.11124 | -63.62005 | 7897 ft | 278 kts | 318° |
| 2026-04-21 10:41 | -9.09671 | -63.63308 | 7607 ft | 277 kts | 318° |
| 2026-04-21 10:41 | -9.08227 | -63.64603 | 7317 ft | 276 kts | 318° |
| 2026-04-21 10:42 | -9.06790 | -63.65893 | 7028 ft | 276 kts | 318° |
| 2026-04-21 10:42 | -9.05365 | -63.67171 | 6735 ft | 270 kts | 318° |
| 2026-04-21 10:42 | -9.03972 | -63.68420 | 6448 ft | 263 kts | 318° |
| 2026-04-21 10:42 | -9.02635 | -63.69617 | 6162 ft | 256 kts | 319° |
| 2026-04-21 10:43 | -9.01318 | -63.70797 | 5881 ft | 249 kts | 318° |
| 2026-04-21 10:43 | -9.00031 | -63.71951 | 5622 ft | 248 kts | 319° |
| 2026-04-21 10:43 | -8.98717 | -63.73127 | 5371 ft | 256 kts | 318° |
| 2026-04-21 10:43 | -8.97364 | -63.74340 | 5100 ft | 263 kts | 319° |
| 2026-04-21 10:44 | -8.95999 | -63.75563 | 4851 ft | 261 kts | 319° |
| 2026-04-21 10:44 | -8.94646 | -63.76776 | 4624 ft | 257 kts | 318° |
| 2026-04-21 10:44 | -8.93312 | -63.77972 | 4381 ft | 255 kts | 319° |
| 2026-04-21 10:44 | -8.92013 | -63.79181 | 4113 ft | 253 kts | 310° |
| 2026-04-21 10:45 | -8.91194 | -63.80718 | 4000 ft | 245 kts | 290° |
| 2026-04-21 10:45 | -8.90708 | -63.82311 | 3848 ft | 234 kts | 287° |
| 2026-04-21 10:45 | -8.90274 | -63.83853 | 3750 ft | 220 kts | 287° |
| 2026-04-21 10:45 | -8.89869 | -63.85277 | 3683 ft | 202 kts | 287° |
| 2026-04-21 10:46 | -8.89486 | -63.86601 | 3605 ft | 192 kts | 287° |
| 2026-04-21 10:46 | -8.89119 | -63.87860 | 3500 ft | 182 kts | 287° |
| 2026-04-21 10:46 | -8.88481 | -63.88916 | 3309 ft | 175 kts | 327° |
| 2026-04-21 10:46 | -8.87349 | -63.89266 | 3191 ft | 173 kts | 356° |
| 2026-04-21 10:47 | -8.86130 | -63.89339 | 3001 ft | 174 kts | 356° |
| 2026-04-21 10:47 | -8.84958 | -63.89411 | 2822 ft | 162 kts | 356° |
| 2026-04-21 10:47 | -8.83871 | -63.89477 | 2611 ft | 152 kts | 356° |
| 2026-04-21 10:47 | -8.82855 | -63.89539 | 2455 ft | 145 kts | 357° |
| 2026-04-21 10:48 | -8.81843 | -63.89601 | 2242 ft | 143 kts | 356° |
| 2026-04-21 10:48 | -8.80867 | -63.89661 | 2044 ft | 141 kts | 356° |
| 2026-04-21 10:48 | -8.79886 | -63.89716 | 1855 ft | 141 kts | 357° |
| 2026-04-21 10:48 | -8.78904 | -63.89770 | 1670 ft | 141 kts | 356° |
| 2026-04-21 10:49 | -8.77929 | -63.89824 | 1478 ft | 140 kts | 357° |
| 2026-04-21 10:49 | -8.76941 | -63.89880 | 1276 ft | 142 kts | 356° |
| 2026-04-21 10:49 | -8.75959 | -63.89945 | 1085 ft | 141 kts | 355° |
| 2026-04-21 10:49 | -8.74966 | -63.90009 | 859 ft | 144 kts | 357° |
| 2026-04-21 10:50 | -8.73977 | -63.90064 | 697 ft | 141 kts | 356° |
| 2026-04-21 10:50 | -8.73000 | -63.90120 | 544 ft | 139 kts | 356° |
| 2026-04-21 10:50 | -8.72041 | -63.90173 | 358 ft | 140 kts | 357° |
| 2026-04-21 10:50 | -8.71088 | -63.90223 | 295 ft | 121 kts | 356° |
| 2026-04-21 10:51 | -8.70596 | -63.90251 | 298 ft | 41 kts | 356° |
| 2026-04-21 10:51 | -8.70352 | -63.90259 | 296 ft | 22 kts | 17° |
| 2026-04-21 10:51 | -8.70306 | -63.90168 | 296 ft | 13 kts | 85° |
| 2026-04-21 10:51 | -8.70308 | -63.90125 | 299 ft | 0 kts | 93° |
| 2026-04-21 10:52 | -8.70308 | -63.90124 | 299 ft | 0 kts | 100° |
| 2026-04-21 10:52 | -8.70313 | -63.90123 | 295 ft | 1 kts | 159° |
| 2026-04-21 10:52 | -8.70359 | -63.90119 | 295 ft | 12 kts | 175° |
| 2026-04-21 10:53 | -8.70465 | -63.90113 | 297 ft | 16 kts | 175° |
| 2026-04-21 10:53 | -8.70612 | -63.90105 | 297 ft | 25 kts | 176° |
| 2026-04-21 10:53 | -8.70800 | -63.90093 | 297 ft | 25 kts | 176° |
| 2026-04-21 10:53 | -8.70990 | -63.90082 | 295 ft | 29 kts | 176° |
| 2026-04-21 10:54 | -8.71195 | -63.90070 | 297 ft | 31 kts | 177° |
| 2026-04-21 10:54 | -8.71377 | -63.90060 | 295 ft | 18 kts | 176° |
| 2026-04-21 10:54 | -8.71422 | -63.90024 | 295 ft | 3 kts | 109° |
| 2026-04-21 10:54 | -8.71425 | -63.90005 | 295 ft | 3 kts | 94° |
| 2026-04-21 10:55 | -8.71425 | -63.89987 | 295 ft | 3 kts | 87° |
| 2026-04-21 10:55 | -8.71423 | -63.89970 | 295 ft | 1 kts | 86° |
| 2026-04-21 10:55 | -8.71423 | -63.89960 | 295 ft | 1 kts | 92° |
| 2026-04-21 10:55 | -8.71424 | -63.89951 | 295 ft | 1 kts | 96° |
| 2026-04-21 10:56 | -8.71425 | -63.89943 | 295 ft | 1 kts | 97° |
| 2026-04-21 10:56 | -8.71426 | -63.89939 | 295 ft | 0 kts | 97° |